Terminal Aerodrome Forecast
Issued by NWS

Home | Current Version | Previous Version | Text Only | Print | Product List | Glossary Off
Versions: 1 2 3 4 5 6 7 8 9 10 11 12 13 14 15 16

000
FTUS43 KGRB 242327
TAFATW
TAF
KATW 242327Z 2500/2524 28009G15KT P6SM SCT030 BKN040
      TEMPO 2500/2503 BKN030
     FM250400 28009G15KT P6SM BKN035 BKN050
      TEMPO 2510/2514 SCT050
     FM251400 31014G20KT P6SM SCT030 BKN040=

USA.gov is the U.S. government's official web portal to all federal, state and local government web resources and services.